Time;durP1;ratioP1;P1;durP2;ratioP2;P2;SDS_P1;SDS_P2;PMS_P1;PMS_P2;Temp;Humidity;BMP_temperature;BMP_pressure;BME280_temperature;BME280_humidity;BME280_pressure;Samples;Min_cycle;Max_cycle;Signal;HPM_P1;HPM_P2
2023/09/10 00:01:54;;;;;;;20.05;18.02;;;18.50;99.90;;;;;;6214445;23;20501;-86
2023/09/10 00:04:21;;;;;;;20.42;18.42;;;18.50;99.90;;;;;;6213003;23;20170;-86
2023/09/10 00:06:48;;;;;;;20.42;18.38;;;18.60;99.90;;;;;;6213666;23;20170;-87
2023/09/10 00:09:15;;;;;;;19.98;17.88;;;18.60;99.90;;;;;;6214388;23;20184;-87
2023/09/10 00:11:42;;;;;;;20.45;18.35;;;18.60;99.90;;;;;;6211866;23;20256;-87
2023/09/10 00:14:09;;;;;;;19.77;17.80;;;18.70;99.90;;;;;;6213082;23;20261;-87
2023/09/10 00:16:35;;;;;;;18.98;17.27;;;18.60;99.90;;;;;;6213571;23;20205;-86
2023/09/10 00:19:04;;;;;;;20.77;18.75;;;18.50;99.90;;;;;;6213479;23;20194;-87
2023/09/10 00:21:31;;;;;;;20.58;18.52;;;18.50;99.90;;;;;;6186980;23;20257;-87
2023/09/10 00:23:58;;;;;;;19.58;17.52;;;18.40;99.90;;;;;;6186226;23;20496;-87
2023/09/10 00:26:26;;;;;;;18.83;16.92;;;18.50;99.90;;;;;;6214255;23;20170;-86
2023/09/10 00:28:53;;;;;;;18.10;16.30;;;18.50;99.90;;;;;;6213527;23;20257;-87
2023/09/10 00:31:20;;;;;;;17.65;16.02;;;18.50;99.90;;;;;;6213256;23;20193;-86
2023/09/10 00:33:47;;;;;;;18.30;16.60;;;18.50;99.90;;;;;;6212222;23;20264;-87
2023/09/10 00:36:15;;;;;;;18.92;17.13;;;18.70;99.90;;;;;;6213011;23;20181;-86
2023/09/10 00:38:45;;;;;;;19.25;17.35;;;18.60;99.90;;;;;;6213045;23;20170;-86
2023/09/10 00:41:12;;;;;;;19.80;17.90;;;18.50;99.90;;;;;;6212212;23;20166;-86
2023/09/10 00:43:42;;;;;;;20.40;18.25;;;18.40;99.90;;;;;;6212773;23;20170;-87
2023/09/10 00:46:15;;;;;;;20.15;18.15;;;18.40;99.90;;;;;;6187476;23;20597;-86
2023/09/10 00:48:45;;;;;;;18.58;16.77;;;18.30;99.90;;;;;;6212956;23;20158;-86
2023/09/10 00:51:12;;;;;;;20.00;17.90;;;18.20;99.90;;;;;;6212694;23;20217;-87
2023/09/10 00:53:44;;;;;;;19.88;17.85;;;18.20;99.90;;;;;;6211400;23;20178;-87
2023/09/10 00:56:11;;;;;;;19.10;17.30;;;18.20;99.90;;;;;;6213636;23;20541;-86
2023/09/10 00:58:38;;;;;;;18.90;17.13;;;18.10;99.90;;;;;;6213349;23;20177;-87
2023/09/10 01:01:08;;;;;;;19.08;17.38;;;18.20;99.90;;;;;;6213249;23;20543;-87
2023/09/10 01:03:36;;;;;;;18.38;16.63;;;18.10;99.90;;;;;;6186025;23;20264;-86
2023/09/10 01:06:06;;;;;;;19.02;17.23;;;18.00;99.90;;;;;;6183648;23;20178;-87
2023/09/10 01:08:47;;;;;;;18.83;16.90;;;18.00;99.90;;;;;;6213134;23;20174;-86
2023/09/10 01:11:25;;;;;;;19.35;17.52;;;18.00;99.90;;;;;;6214031;23;20585;-86
2023/09/10 01:14:02;;;;;;;19.58;17.67;;;18.00;99.90;;;;;;6213219;23;20601;-86
2023/09/10 01:16:36;;;;;;;18.77;16.83;;;18.00;99.90;;;;;;6213620;23;20176;-86
2023/09/10 01:19:17;;;;;;;17.30;15.68;;;17.90;99.90;;;;;;6213868;23;20620;-86
2023/09/10 01:21:52;;;;;;;17.85;15.88;;;18.10;99.90;;;;;;6213631;23;20197;-86
2023/09/10 01:24:29;;;;;;;17.30;15.70;;;18.30;99.90;;;;;;6213370;23;20162;-86
2023/09/10 01:26:58;;;;;;;17.95;16.08;;;18.40;99.90;;;;;;6213604;23;20485;-86
2023/09/10 01:29:25;;;;;;;17.95;16.15;;;18.40;99.90;;;;;;6213737;23;20177;-87
2023/09/10 01:31:58;;;;;;;17.25;15.65;;;18.40;99.90;;;;;;6212959;23;20169;-87
2023/09/10 01:34:31;;;;;;;17.83;16.17;;;18.30;99.90;;;;;;6213449;23;20181;-86
2023/09/10 01:37:04;;;;;;;17.55;15.80;;;18.20;99.90;;;;;;6213799;23;20524;-86
2023/09/10 01:39:37;;;;;;;17.05;15.35;;;18.10;99.90;;;;;;6213970;23;20192;-86
2023/09/10 01:42:06;;;;;;;17.58;15.75;;;18.00;99.90;;;;;;6213702;23;20162;-87
2023/09/10 01:44:37;;;;;;;16.58;15.07;;;17.90;99.90;;;;;;6213350;23;20237;-86
2023/09/10 01:47:07;;;;;;;16.15;14.68;;;17.80;99.90;;;;;;6213519;23;20174;-86
2023/09/10 01:49:34;;;;;;;17.35;15.68;;;17.80;99.90;;;;;;6187394;23;20170;-86
2023/09/10 01:52:01;;;;;;;17.33;15.63;;;17.70;99.90;;;;;;6212426;23;20190;-87
2023/09/10 01:54:28;;;;;;;15.35;13.93;;;17.70;99.90;;;;;;6212779;23;20878;-86
2023/09/10 01:56:54;;;;;;;15.10;13.80;;;17.70;99.90;;;;;;6213586;23;20227;-86
2023/09/10 01:59:23;;;;;;;16.23;14.63;;;17.80;99.90;;;;;;6213795;23;20170;-86
2023/09/10 02:01:50;;;;;;;15.90;14.40;;;17.90;99.90;;;;;;6212479;23;20174;-86
2023/09/10 02:04:16;;;;;;;15.00;13.60;;;17.80;99.90;;;;;;6185273;23;20180;-86
2023/09/10 02:06:43;;;;;;;15.13;13.73;;;17.80;99.90;;;;;;6213741;23;20177;-86
2023/09/10 02:09:10;;;;;;;15.70;14.20;;;17.80;99.90;;;;;;6212965;23;20180;-86
2023/09/10 02:11:37;;;;;;;16.27;14.68;;;17.90;99.90;;;;;;6213218;23;20170;-86
2023/09/10 02:14:04;;;;;;;15.45;14.00;;;17.80;99.90;;;;;;6186051;23;20181;-86
2023/09/10 02:16:32;;;;;;;15.52;14.02;;;17.70;99.90;;;;;;6213824;23;20174;-86
2023/09/10 02:18:59;;;;;;;15.13;13.73;;;17.80;99.90;;;;;;6212612;23;20174;-86
2023/09/10 02:21:26;;;;;;;15.43;13.93;;;17.80;99.90;;;;;;6185412;23;20194;-86
2023/09/10 02:23:52;;;;;;;16.50;14.88;;;17.80;99.90;;;;;;6211273;23;20177;-86
2023/09/10 02:26:19;;;;;;;14.90;13.40;;;17.90;99.90;;;;;;6212032;23;20170;-87
2023/09/10 02:28:46;;;;;;;15.63;14.18;;;17.90;99.90;;;;;;6212835;23;20178;-86
2023/09/10 02:31:13;;;;;;;15.77;14.20;;;17.90;99.90;;;;;;6213598;23;20181;-86
2023/09/10 02:33:42;;;;;;;15.77;14.27;;;17.80;99.90;;;;;;6212342;23;20823;-86
2023/09/10 02:36:08;;;;;;;15.90;14.32;;;17.70;99.90;;;;;;6212675;23;20178;-86
2023/09/10 02:38:36;;;;;;;15.65;14.20;;;17.70;99.90;;;;;;6187011;23;20170;-86
2023/09/10 02:41:03;;;;;;;15.82;14.23;;;17.60;99.90;;;;;;6186499;23;20637;-86
2023/09/10 02:43:29;;;;;;;15.98;14.45;;;17.50;99.90;;;;;;6211437;23;20177;-86
2023/09/10 02:45:56;;;;;;;16.08;14.13;;;17.40;99.90;;;;;;6213056;23;20170;-86
2023/09/10 02:48:23;;;;;;;15.88;14.48;;;17.50;99.90;;;;;;6212349;23;20178;-86
2023/09/10 02:50:53;;;;;;;15.43;14.02;;;17.60;99.90;;;;;;6211011;23;20196;-86
2023/09/10 02:53:20;;;;;;;17.25;14.57;;;17.50;99.90;;;;;;6212012;23;20216;-86
2023/09/10 02:55:47;;;;;;;18.05;15.88;;;17.50;99.90;;;;;;6213027;23;20174;-87
2023/09/10 02:58:14;;;;;;;17.02;15.43;;;17.40;99.90;;;;;;6213471;23;20174;-87
2023/09/10 03:00:41;;;;;;;15.15;13.73;;;17.40;99.90;;;;;;6215232;23;20203;-86
2023/09/10 03:03:08;;;;;;;16.10;14.50;;;17.40;99.90;;;;;;6214529;23;20176;-87
2023/09/10 03:05:35;;;;;;;15.68;14.05;;;17.30;99.90;;;;;;6189007;23;20236;-86
2023/09/10 03:08:04;;;;;;;16.10;14.63;;;17.30;99.90;;;;;;6214601;23;20178;-86
2023/09/10 03:10:30;;;;;;;16.50;14.90;;;17.30;99.90;;;;;;6214935;23;20181;-86
2023/09/10 03:12:57;;;;;;;16.23;14.52;;;17.20;99.90;;;;;;6214993;23;20181;-86
2023/09/10 03:15:24;;;;;;;15.15;13.80;;;17.20;99.90;;;;;;6214901;23;20180;-86
2023/09/10 03:17:51;;;;;;;14.32;12.98;;;17.30;99.90;;;;;;6188270;23;20177;-86
2023/09/10 03:20:18;;;;;;;14.95;13.65;;;17.30;99.90;;;;;;6213542;23;20189;-86
2023/09/10 03:22:45;;;;;;;15.23;13.77;;;17.20;99.90;;;;;;6212707;23;20529;-86
2023/09/10 03:25:13;;;;;;;15.38;13.98;;;17.20;99.90;;;;;;6213015;23;20174;-86
2023/09/10 03:27:40;;;;;;;15.80;14.40;;;17.20;99.90;;;;;;6212674;23;20178;-86
2023/09/10 03:30:08;;;;;;;15.55;14.00;;;17.20;99.90;;;;;;6214413;23;20170;-86
2023/09/10 03:32:35;;;;;;;15.40;14.00;;;17.10;99.90;;;;;;6213195;23;20174;-86
2023/09/10 03:35:03;;;;;;;15.98;14.48;;;17.10;99.90;;;;;;6213386;23;20177;-86
2023/09/10 03:37:30;;;;;;;16.02;14.45;;;17.10;99.90;;;;;;6213647;23;20212;-86
2023/09/10 03:39:56;;;;;;;15.95;14.25;;;17.00;99.90;;;;;;6214123;23;20204;-86
2023/09/10 03:42:25;;;;;;;16.63;15.10;;;17.00;99.90;;;;;;6214452;23;20260;-86
2023/09/10 03:44:52;;;;;;;15.57;14.00;;;16.90;99.90;;;;;;6213678;23;20249;-86
2023/09/10 03:47:18;;;;;;;16.77;15.18;;;16.90;99.90;;;;;;6213800;23;20263;-86
2023/09/10 03:49:45;;;;;;;16.50;14.77;;;16.80;99.90;;;;;;6214097;23;20174;-86
2023/09/10 03:52:16;;;;;;;16.10;14.50;;;16.80;99.90;;;;;;6213888;23;20575;-86
2023/09/10 03:54:43;;;;;;;15.88;14.35;;;16.80;99.90;;;;;;6213659;23;20192;-86
2023/09/10 03:57:10;;;;;;;17.23;14.48;;;16.80;99.90;;;;;;6214297;23;20181;-86
2023/09/10 03:59:38;;;;;;;16.08;14.57;;;16.80;99.90;;;;;;6214129;23;20170;-86
2023/09/10 04:02:05;;;;;;;15.48;14.02;;;16.80;99.90;;;;;;6213287;23;20575;-86
2023/09/10 04:04:32;;;;;;;15.80;14.23;;;16.70;99.90;;;;;;6214232;23;20177;-86
2023/09/10 04:06:59;;;;;;;15.70;14.20;;;16.70;99.90;;;;;;6214730;23;20177;-86
2023/09/10 04:09:26;;;;;;;15.05;13.65;;;16.70;99.90;;;;;;6214072;23;20174;-86
2023/09/10 04:11:54;;;;;;;16.17;14.50;;;16.70;99.90;;;;;;6214051;23;20184;-86
2023/09/10 04:14:21;;;;;;;16.20;14.50;;;16.70;99.90;;;;;;6212890;23;20297;-86
2023/09/10 04:16:49;;;;;;;15.60;14.10;;;16.80;99.90;;;;;;6213238;23;20176;-86
2023/09/10 04:19:16;;;;;;;15.82;14.32;;;16.70;99.90;;;;;;6213813;23;20646;-86
2023/09/10 04:21:43;;;;;;;15.75;14.18;;;16.70;99.90;;;;;;6214520;23;20277;-86
2023/09/10 04:24:10;;;;;;;15.00;13.70;;;16.80;99.90;;;;;;6213292;23;20201;-86
2023/09/10 04:26:37;;;;;;;16.77;14.05;;;16.70;99.90;;;;;;6188490;23;20170;-86
2023/09/10 04:29:04;;;;;;;15.70;14.15;;;16.70;99.90;;;;;;6213804;23;20890;-86
2023/09/10 04:31:36;;;;;;;14.32;13.02;;;16.70;99.90;;;;;;6214320;23;20485;-86
2023/09/10 04:34:05;;;;;;;15.70;14.23;;;16.70;99.90;;;;;;6213168;23;20244;-86
2023/09/10 04:36:31;;;;;;;14.25;12.85;;;16.70;99.90;;;;;;6214858;23;20170;-86
2023/09/10 04:38:58;;;;;;;14.05;12.65;;;16.70;99.90;;;;;;6213460;23;20184;-86
2023/09/10 04:41:25;;;;;;;14.05;12.55;;;16.80;99.90;;;;;;6188357;23;20240;-86
2023/09/10 04:43:52;;;;;;;14.65;13.13;;;16.90;99.90;;;;;;6186565;23;20177;-86
2023/09/10 04:46:19;;;;;;;15.05;13.48;;;16.90;99.90;;;;;;6214225;23;20170;-85
2023/09/10 04:48:46;;;;;;;14.60;13.30;;;16.90;99.90;;;;;;6213343;23;20506;-86
2023/09/10 04:51:14;;;;;;;15.45;13.95;;;16.90;99.90;;;;;;6214004;23;20197;-86
2023/09/10 04:53:42;;;;;;;14.98;13.48;;;16.80;99.90;;;;;;6213431;23;20189;-86
2023/09/10 04:56:09;;;;;;;15.00;13.60;;;16.70;99.90;;;;;;6213890;23;20171;-86
2023/09/10 04:58:36;;;;;;;14.00;12.80;;;16.70;99.90;;;;;;6213925;23;20177;-87
2023/09/10 05:01:02;;;;;;;14.20;12.90;;;16.70;99.90;;;;;;6212864;23;20657;-85
2023/09/10 05:03:29;;;;;;;14.80;13.40;;;16.80;99.90;;;;;;6213650;23;20170;-86
2023/09/10 05:06:00;;;;;;;15.18;13.77;;;16.70;99.90;;;;;;6212988;23;20174;-86
2023/09/10 05:08:29;;;;;;;14.82;13.52;;;16.70;99.90;;;;;;6212266;23;20200;-86
2023/09/10 05:10:56;;;;;;;14.52;13.10;;;16.80;99.90;;;;;;6210218;23;20624;-86
2023/09/10 05:13:23;;;;;;;15.80;13.55;;;16.80;99.90;;;;;;6212590;23;20178;-86
2023/09/10 05:15:51;;;;;;;13.98;12.77;;;16.80;99.90;;;;;;6207074;23;20500;-86
2023/09/10 05:18:18;;;;;;;14.80;13.25;;;16.80;99.90;;;;;;6213976;23;20464;-86
2023/09/10 05:20:44;;;;;;;13.52;12.20;;;16.90;99.90;;;;;;6212273;23;20193;-86
2023/09/10 05:23:11;;;;;;;13.40;12.10;;;17.00;99.90;;;;;;6213312;23;20181;-86
2023/09/10 05:25:40;;;;;;;13.00;11.80;;;17.10;99.90;;;;;;6214252;23;20173;-86
2023/09/10 05:28:07;;;;;;;14.18;12.77;;;17.10;99.90;;;;;;6213407;23;20178;-86
2023/09/10 05:30:37;;;;;;;13.43;12.32;;;17.10;99.90;;;;;;6213061;23;20174;-86
2023/09/10 05:33:04;;;;;;;13.70;12.40;;;17.20;99.90;;;;;;6213615;23;20190;-85
2023/09/10 05:35:31;;;;;;;13.90;12.60;;;17.30;99.90;;;;;;6212333;23;20362;-86
2023/09/10 05:37:58;;;;;;;12.90;11.80;;;17.40;99.90;;;;;;6212594;23;20527;-86
2023/09/10 05:40:25;;;;;;;13.80;12.50;;;17.40;99.90;;;;;;6213084;23;20174;-86
2023/09/10 05:42:54;;;;;;;13.80;12.43;;;17.40;99.90;;;;;;6212921;23;20219;-86
2023/09/10 05:45:21;;;;;;;14.73;13.43;;;17.40;99.90;;;;;;6178795;23;20178;-86
2023/09/10 05:47:47;;;;;;;14.15;12.57;;;17.50;99.90;;;;;;6183406;23;20177;-86
2023/09/10 05:50:14;;;;;;;13.63;12.23;;;17.50;99.90;;;;;;6213154;23;20184;-86
2023/09/10 05:52:41;;;;;;;13.30;12.10;;;17.50;99.90;;;;;;6201601;23;20379;-88
2023/09/10 05:55:08;;;;;;;13.95;12.65;;;17.60;99.90;;;;;;6212020;23;20170;-87
2023/09/10 05:57:35;;;;;;;14.65;13.32;;;17.50;99.90;;;;;;6211621;23;20174;-88
2023/09/10 06:00:04;;;;;;;14.75;13.10;;;17.50;99.90;;;;;;6212577;23;20174;-89
2023/09/10 06:02:31;;;;;;;13.90;12.63;;;17.60;99.90;;;;;;6211213;23;20198;-87
2023/09/10 06:04:58;;;;;;;14.98;13.57;;;17.70;99.90;;;;;;6183139;23;20174;-87
2023/09/10 06:07:25;;;;;;;15.35;13.85;;;17.70;99.90;;;;;;6211223;23;20212;-87
2023/09/10 06:09:52;;;;;;;14.30;12.90;;;17.70;99.90;;;;;;6210034;23;20173;-87
2023/09/10 06:12:19;;;;;;;14.02;12.73;;;17.80;99.90;;;;;;6211640;23;20188;-87
2023/09/10 06:14:46;;;;;;;14.70;13.32;;;17.90;99.90;;;;;;6186477;23;20497;-86
2023/09/10 06:17:14;;;;;;;14.82;13.32;;;18.00;99.90;;;;;;6211536;23;20170;-85
2023/09/10 06:19:41;;;;;;;13.60;12.40;;;18.00;99.90;;;;;;6211903;23;20177;-86
2023/09/10 06:22:08;;;;;;;18.77;13.25;;;18.10;99.90;;;;;;6212521;23;20194;-86
2023/09/10 06:24:35;;;;;;;14.07;12.80;;;18.20;99.90;;;;;;6212773;23;20180;-85
2023/09/10 06:27:01;;;;;;;13.23;12.13;;;18.30;99.90;;;;;;6208770;23;20170;-85
2023/09/10 06:29:28;;;;;;;13.70;12.50;;;18.40;99.90;;;;;;6209469;23;20177;-85
2023/09/10 06:31:55;;;;;;;14.07;12.70;;;18.50;99.90;;;;;;6213545;23;20197;-86
2023/09/10 06:34:24;;;;;;;13.05;11.85;;;18.60;99.90;;;;;;6212761;23;20184;-86
2023/09/10 06:36:53;;;;;;;13.57;12.35;;;18.70;99.90;;;;;;6188819;23;20840;-88
2023/09/10 06:39:19;;;;;;;12.77;11.45;;;18.80;99.90;;;;;;6187622;23;20174;-83
2023/09/10 06:41:47;;;;;;;12.95;11.75;;;18.90;99.90;;;;;;6214276;23;20197;-83
2023/09/10 06:44:14;;;;;;;13.05;11.85;;;19.00;99.90;;;;;;6186370;23;20216;-83
2023/09/10 06:46:41;;;;;;;12.75;11.65;;;19.10;99.90;;;;;;6213075;23;20665;-83
2023/09/10 06:49:08;;;;;;;13.63;12.27;;;19.10;99.90;;;;;;6214120;23;20174;-84
2023/09/10 06:51:36;;;;;;;12.30;11.25;;;19.20;99.90;;;;;;6214413;23;20200;-84
2023/09/10 06:54:03;;;;;;;13.93;11.77;;;19.30;99.90;;;;;;6214256;23;20177;-84
2023/09/10 06:56:30;;;;;;;13.02;11.82;;;19.40;99.90;;;;;;6214879;23;20177;-83
2023/09/10 06:58:57;;;;;;;13.32;12.02;;;19.40;99.90;;;;;;6212235;23;20177;-83
2023/09/10 07:01:24;;;;;;;13.27;11.90;;;19.50;99.90;;;;;;6211824;23;20198;-83
2023/09/10 07:03:53;;;;;;;13.13;12.02;;;19.60;99.90;;;;;;6211760;23;20173;-83
2023/09/10 07:06:20;;;;;;;13.18;11.85;;;19.70;99.90;;;;;;6212592;23;20485;-83
2023/09/10 07:08:48;;;;;;;12.50;10.93;;;19.80;99.90;;;;;;6212158;23;20173;-83
2023/09/10 07:11:15;;;;;;;12.60;11.30;;;19.80;99.90;;;;;;6211738;23;20385;-83
2023/09/10 07:13:42;;;;;;;12.75;11.45;;;20.00;99.90;;;;;;6210978;23;20178;-82
2023/09/10 07:16:09;;;;;;;12.52;11.25;;;20.00;99.90;;;;;;6188013;23;20675;-82
2023/09/10 07:18:36;;;;;;;12.70;11.40;;;20.10;99.90;;;;;;6214429;23;20170;-82
2023/09/10 07:21:03;;;;;;;14.20;12.85;;;20.20;99.90;;;;;;6215457;22;21400;-82
2023/09/10 07:23:30;;;;;;;38.72;34.75;;;20.30;99.90;;;;;;6217022;23;20650;-84
2023/09/10 07:25:58;;;;;;;20.85;18.95;;;20.50;99.90;;;;;;6243102;23;20177;-84
2023/09/10 07:28:25;;;;;;;16.33;14.75;;;20.60;99.90;;;;;;6217452;23;20611;-81
2023/09/10 07:30:51;;;;;;;14.65;13.35;;;20.70;99.90;;;;;;6244441;23;20176;-85
2023/09/10 07:33:18;;;;;;;13.75;12.55;;;20.80;99.90;;;;;;6243680;23;20169;-84
2023/09/10 07:35:45;;;;;;;11.98;10.82;;;20.90;99.90;;;;;;6243578;23;20180;-83
2023/09/10 07:38:12;;;;;;;13.35;12.18;;;21.00;99.90;;;;;;6216450;23;20181;-84
2023/09/10 07:40:39;;;;;;;13.13;11.93;;;21.20;99.90;;;;;;6244734;23;20170;-83
2023/09/10 07:43:07;;;;;;;12.43;11.30;;;21.30;99.90;;;;;;6216945;23;20239;-83
2023/09/10 07:45:34;;;;;;;12.00;10.85;;;21.40;99.90;;;;;;6244534;23;20169;-83
2023/09/10 07:48:01;;;;;;;12.27;11.23;;;21.40;99.90;;;;;;6243766;23;20176;-84
2023/09/10 07:50:28;;;;;;;11.75;10.73;;;21.60;99.90;;;;;;6240289;23;20206;-83
2023/09/10 07:52:55;;;;;;;58.53;52.78;;;21.70;99.50;;;;;;6161438;23;20181;-83
2023/09/10 07:55:22;;;;;;;12.45;11.35;;;21.80;99.50;;;;;;6212546;23;20178;-83
2023/09/10 07:57:49;;;;;;;10.77;9.82;;;21.90;99.00;;;;;;6214231;23;20170;-83
2023/09/10 08:00:21;;;;;;;10.82;9.73;;;22.10;98.80;;;;;;6213745;23;20176;-83
2023/09/10 08:02:48;;;;;;;13.68;11.77;;;22.10;96.40;;;;;;6213767;23;20186;-88
2023/09/10 08:05:15;;;;;;;56.20;50.58;;;22.30;96.50;;;;;;6213212;23;20189;-83
2023/09/10 08:07:42;;;;;;;20.83;18.90;;;22.40;96.90;;;;;;6163386;23;20178;-88
2023/09/10 08:10:09;;;;;;;11.00;10.00;;;22.50;97.00;;;;;;6213905;23;20174;-88
2023/09/10 08:12:36;;;;;;;11.82;10.70;;;22.60;96.70;;;;;;6212594;23;20189;-86
2023/09/10 08:15:04;;;;;;;11.38;10.40;;;22.70;96.00;;;;;;6213237;23;20515;-86
2023/09/10 08:17:34;;;;;;;10.02;9.13;;;22.80;95.70;;;;;;6215737;23;20252;-86
2023/09/10 08:20:00;;;;;;;9.05;8.25;;;22.90;95.00;;;;;;6216784;23;20174;-86
2023/09/10 08:22:27;;;;;;;10.63;9.05;;;23.00;95.10;;;;;;6188601;23;20197;-86
2023/09/10 08:24:55;;;;;;;9.90;9.00;;;23.10;94.50;;;;;;6188113;23;20182;-86
2023/09/10 08:27:22;;;;;;;11.23;8.98;;;23.30;93.40;;;;;;6213829;23;20402;-85
2023/09/10 08:29:49;;;;;;;10.02;9.23;;;23.50;92.20;;;;;;6213496;23;20174;-86
2023/09/10 08:32:15;;;;;;;9.27;8.50;;;23.60;92.30;;;;;;6212977;23;20182;-85
2023/09/10 08:34:44;;;;;;;8.82;8.13;;;23.60;92.30;;;;;;6212978;23;20184;-86
2023/09/10 08:37:11;;;;;;;8.50;7.70;;;23.80;90.20;;;;;;6212785;23;20863;-86
2023/09/10 08:39:38;;;;;;;8.32;7.60;;;23.90;88.80;;;;;;6187608;23;20174;-90
2023/09/10 08:42:15;;;;;;;9.30;8.48;;;24.10;80.90;;;;;;6214145;23;20200;-88
2023/09/10 08:44:43;;;;;;;9.07;8.20;;;24.30;82.40;;;;;;6213595;23;20165;-85
2023/09/10 08:47:13;;;;;;;10.35;9.35;;;24.40;79.70;;;;;;6186344;23;20206;-85
2023/09/10 08:49:43;;;;;;;10.25;8.27;;;24.40;81.70;;;;;;6213337;23;20636;-85
2023/09/10 08:52:11;;;;;;;10.60;9.60;;;24.50;82.30;;;;;;6212757;23;20987;-84
2023/09/10 08:54:38;;;;;;;8.70;8.00;;;24.70;82.10;;;;;;6211138;23;20173;-87
2023/09/10 08:57:06;;;;;;;8.43;7.63;;;24.80;78.30;;;;;;6186430;23;20174;-86
2023/09/10 08:59:33;;;;;;;8.93;8.13;;;25.10;75.60;;;;;;6187433;23;20174;-86
2023/09/10 09:02:00;;;;;;;9.27;8.38;;;25.50;74.70;;;;;;6214038;23;20652;-88
2023/09/10 09:04:27;;;;;;;8.65;7.65;;;26.60;52.30;;;;;;6213356;23;20176;-88
2023/09/10 09:06:58;;;;;;;8.25;7.40;;;28.20;36.00;;;;;;6213290;23;20582;-91
2023/09/10 09:09:31;;;;;;;9.13;8.18;;;30.00;27.70;;;;;;6188273;23;20220;-87
2023/09/10 09:12:00;;;;;;;7.70;6.95;;;31.40;19.70;;;;;;6214633;23;20212;-87
2023/09/10 09:14:28;;;;;;;7.68;6.82;;;31.30;18.10;;;;;;6214413;23;20170;-88
2023/09/10 09:16:57;;;;;;;8.20;7.50;;;32.80;17.30;;;;;;6213445;23;20177;-90
2023/09/10 09:19:28;;;;;;;7.10;6.50;;;33.70;12.40;;;;;;6214417;23;20236;-90
2023/09/10 09:22:00;;;;;;;9.07;8.27;;;32.60;14.00;;;;;;6187192;23;20221;-91
2023/09/10 09:24:29;;;;;;;7.72;7.10;;;32.90;13.80;;;;;;6214824;23;20169;-91
2023/09/10 09:26:58;;;;;;;8.30;7.45;;;33.40;13.50;;;;;;6214565;23;20169;-91
2023/09/10 09:29:26;;;;;;;8.20;7.57;;;33.50;12.00;;;;;;6212585;23;20256;-91
2023/09/10 09:31:53;;;;;;;7.30;6.70;;;33.50;12.90;;;;;;6188490;23;20235;-91
2023/09/10 09:34:19;;;;;;;7.75;7.18;;;33.60;12.70;;;;;;6213516;23;20170;-91
2023/09/10 09:36:51;;;;;;;8.68;7.93;;;34.10;11.50;;;;;;6187035;23;20169;-90
2023/09/10 09:39:20;;;;;;;8.40;7.70;;;34.00;11.40;;;;;;6214681;23;20162;-89
2023/09/10 09:41:53;;;;;;;9.13;8.18;;;34.10;13.00;;;;;;6187341;23;20185;-87
2023/09/10 09:44:20;;;;;;;8.60;7.93;;;33.90;11.80;;;;;;6213538;23;20161;-90
2023/09/10 09:46:48;;;;;;;8.90;8.20;;;34.10;11.20;;;;;;6213687;23;20184;-90
2023/09/10 09:49:15;;;;;;;8.95;8.05;;;34.00;10.60;;;;;;6214404;23;20264;-90
2023/09/10 09:51:43;;;;;;;9.05;8.30;;;34.00;10.50;;;;;;6214402;23;20276;-90
2023/09/10 09:54:10;;;;;;;8.32;7.72;;;34.20;10.80;;;;;;6214062;23;20183;-91
2023/09/10 09:56:39;;;;;;;9.00;8.20;;;34.30;12.00;;;;;;6213048;23;20615;-90
2023/09/10 09:59:06;;;;;;;8.85;8.10;;;34.00;11.60;;;;;;6213286;23;20177;-90
2023/09/10 10:01:44;;;;;;;8.63;7.03;;;33.70;12.10;;;;;;6213063;23;20184;-91
2023/09/10 10:04:15;;;;;;;8.10;7.40;;;34.00;9.00;;;;;;6212596;23;20173;-92
2023/09/10 10:06:42;;;;;;;8.07;7.28;;;33.30;10.30;;;;;;6214674;23;20667;-90
2023/09/10 10:09:09;;;;;;;7.65;7.05;;;33.30;12.00;;;;;;6215279;23;20180;-90
2023/09/10 10:11:37;;;;;;;7.40;6.70;;;33.50;10.00;;;;;;6215211;23;20201;-90
2023/09/10 10:14:07;;;;;;;8.05;7.43;;;34.00;7.70;;;;;;6188284;23;20175;-91
2023/09/10 10:16:34;;;;;;;7.47;6.85;;;34.40;7.90;;;;;;6216649;23;20180;-90
2023/09/10 10:19:01;;;;;;;7.63;6.82;;;33.80;9.50;;;;;;6215650;23;20706;-91
2023/09/10 10:21:29;;;;;;;7.13;6.28;;;34.40;7.60;;;;;;6215856;23;20548;-89
2023/09/10 10:23:57;;;;;;;8.15;6.18;;;34.40;6.50;;;;;;6214728;23;20213;-88
2023/09/10 10:26:24;;;;;;;7.70;6.97;;;34.10;6.10;;;;;;6214235;23;20177;-88
2023/09/10 10:28:52;;;;;;;6.85;6.35;;;34.30;7.50;;;;;;6215494;23;20169;-87
2023/09/10 10:31:25;;;;;;;8.05;7.25;;;34.30;8.10;;;;;;6214903;23;20272;-88
2023/09/10 10:34:02;;;;;;;7.60;7.00;;;33.60;9.30;;;;;;6214270;23;20166;-88
2023/09/10 10:36:37;;;;;;;7.60;6.20;;;33.40;10.30;;;;;;6214826;23;20174;-89
2023/09/10 10:39:09;;;;;;;19.13;17.50;;;33.40;9.60;;;;;;6214142;23;20196;-89
2023/09/10 10:41:41;;;;;;;8.00;7.03;;;32.90;11.90;;;;;;6214697;23;20157;-88
2023/09/10 10:44:16;;;;;;;7.25;6.70;;;32.50;12.80;;;;;;6214587;23;20192;-88
2023/09/10 10:46:45;;;;;;;7.60;6.80;;;32.40;13.00;;;;;;6216166;23;20161;-89
2023/09/10 10:49:12;;;;;;;8.00;7.35;;;32.90;11.20;;;;;;6213805;23;20173;-89
2023/09/10 10:51:45;;;;;;;8.60;6.75;;;32.80;11.10;;;;;;6215575;23;20215;-89
2023/09/10 10:54:14;;;;;;;8.02;7.15;;;34.10;8.50;;;;;;6214396;23;20180;-90
2023/09/10 10:56:41;;;;;;;7.85;7.15;;;33.30;11.50;;;;;;6188290;23;20177;-87
2023/09/10 10:59:08;;;;;;;7.28;6.68;;;32.90;10.80;;;;;;6215315;23;20176;-87
2023/09/10 11:01:35;;;;;;;7.18;6.57;;;32.60;11.90;;;;;;6216566;23;20170;-89
2023/09/10 11:04:19;;;;;;;7.85;7.03;;;32.50;13.10;;;;;;6214739;23;20194;-89
2023/09/10 11:07:16;;;;;;;7.13;6.53;;;32.10;13.60;;;;;;6213946;23;20158;-89
2023/09/10 11:09:43;;;;;;;7.18;6.57;;;31.80;13.40;;;;;;6215552;23;20596;-89
2023/09/10 11:12:10;;;;;;;8.20;7.40;;;31.50;13.40;;;;;;6214229;23;20232;-89
2023/09/10 11:15:05;;;;;;;6.97;6.30;;;31.20;15.70;;;;;;6214655;23;20169;-87
2023/09/10 11:17:33;;;;;;;7.82;6.72;;;31.00;15.80;;;;;;6188062;23;20177;-87
2023/09/10 11:20:03;;;;;;;7.90;6.60;;;30.80;14.50;;;;;;6214877;23;20628;-89
2023/09/10 11:23:08;;;;;;;7.30;6.57;;;30.50;16.90;;;;;;6215492;23;20197;-89
2023/09/10 11:25:35;;;;;;;7.30;6.60;;;30.20;16.40;;;;;;6215713;23;20177;-85
2023/09/10 11:28:03;;;;;;;7.43;6.57;;;30.30;16.80;;;;;;6187901;23;20612;-85
2023/09/10 11:30:31;;;;;;;8.18;6.45;;;30.20;16.70;;;;;;6188803;23;20170;-85
2023/09/10 11:33:30;;;;;;;7.75;6.05;;;30.20;16.80;;;;;;6189662;23;20503;-86
2023/09/10 11:36:02;;;;;;;8.88;6.38;;;30.10;16.40;;;;;;6215088;23;20170;-85
2023/09/10 11:38:31;;;;;;;9.25;6.60;;;30.10;14.50;;;;;;6188547;23;20189;-85
2023/09/10 11:40:59;;;;;;;12.25;7.07;;;30.00;16.70;;;;;;6213648;23;20177;-86
2023/09/10 11:43:29;;;;;;;9.65;6.70;;;29.90;16.60;;;;;;6188193;23;20193;-87
2023/09/10 11:45:56;;;;;;;6.68;6.10;;;29.90;16.60;;;;;;6215302;23;20176;-87
2023/09/10 11:48:24;;;;;;;8.95;6.38;;;29.90;16.60;;;;;;6214550;23;20173;-87
2023/09/10 11:50:51;;;;;;;7.13;6.35;;;29.80;16.50;;;;;;6214531;23;20193;-87
2023/09/10 11:53:21;;;;;;;8.18;6.32;;;29.60;16.40;;;;;;6214461;23;20173;-87
2023/09/10 11:55:49;;;;;;;6.57;5.97;;;29.70;16.50;;;;;;6213804;23;20169;-87
2023/09/10 11:58:18;;;;;;;9.27;6.70;;;29.80;16.50;;;;;;6214354;23;20713;-87
2023/09/10 12:00:45;;;;;;;6.93;6.20;;;29.70;16.50;;;;;;6214492;23;20694;-87
2023/09/10 12:03:12;;;;;;;6.95;6.25;;;29.80;16.50;;;;;;6212901;23;20256;-87
2023/09/10 12:05:45;;;;;;;7.88;6.30;;;29.60;16.40;;;;;;6214717;23;20184;-88
2023/09/10 12:08:12;;;;;;;6.00;5.50;;;29.50;16.40;;;;;;6213872;23;20157;-87
2023/09/10 12:10:41;;;;;;;7.80;5.97;;;29.60;16.40;;;;;;6214262;23;20174;-87
2023/09/10 12:13:09;;;;;;;7.93;5.80;;;29.50;16.40;;;;;;6213532;23;20256;-87
2023/09/10 12:15:36;;;;;;;7.65;6.28;;;29.40;16.40;;;;;;6214601;23;20201;-87
2023/09/10 12:18:05;;;;;;;6.45;5.85;;;29.30;16.30;;;;;;6214230;23;20253;-87
2023/09/10 12:20:34;;;;;;;7.45;5.60;;;29.40;16.30;;;;;;6214290;23;20185;-87
2023/09/10 12:23:01;;;;;;;7.10;6.40;;;29.40;16.30;;;;;;6213852;23;20197;-86
2023/09/10 12:25:28;;;;;;;7.13;6.03;;;29.40;16.30;;;;;;6213719;23;20506;-87
2023/09/10 12:27:57;;;;;;;9.60;5.90;;;29.30;16.30;;;;;;6215064;23;20170;-86
2023/09/10 12:30:26;;;;;;;9.50;6.22;;;29.20;16.20;;;;;;6213457;23;20624;-86
2023/09/10 12:32:53;;;;;;;7.97;6.15;;;29.10;16.20;;;;;;6213538;23;20634;-87
2023/09/10 12:35:21;;;;;;;7.18;6.13;;;29.10;16.20;;;;;;6210083;23;20171;-86
2023/09/10 12:37:50;;;;;;;7.60;6.35;;;29.00;16.20;;;;;;6186496;23;20180;-87
2023/09/10 12:40:17;;;;;;;7.22;6.35;;;29.00;16.20;;;;;;6212393;23;20170;-88